Terminal Aerodrome Forecast
Issued by NWS Rapid City, SD

Home | Current Version | Previous Version | Graphics & Text | Print | Product List | Glossary On
Versions: 1 2 3 4 5 6 7 8 9 10 11 12 13 14 15 16 17 18 19
313
FTUS43 KUNR 210650 AAA
TAFRAP
TAF AMD
KRAP 210650Z 2107/2206 34010KT 5SM -SN SCT015 OVC035
      TEMPO 2107/2110 2SM -SN BKN015
     FM211200 35012KT 5SM -SN BKN025 OVC050
     FM211800 35015KT P6SM OVC080=

USA.gov is the U.S. government's official web portal to all federal, state and local government web resources and services.